KLM3CM ESGG-EDDF
Flight info
| Callsign | KLM3CM |
|---|---|
| Flight time | N/A |
| Altitude | 32000 |
| Route | TOPLA L996 ERNOV DCT NIKDA DCT NOBRI DCT BUMIL DCT HLZ DCT RIMET T157 KERAX KERAX5A |
| Aircraft | A20N/M-SDE2E3FGHIRWXY/LB1 |
Departure
| Time | 2026-05-04 15:45 |
|---|---|
| Airport | Göteborg Landvetter Airport (ESGG) |
Arrival
| Time | N/A |
|---|---|
| Airport | Frankfurt Main Airport (EDDF) |
| Time | Latitude | Longitude | Altitude | Speed | Heading |
|---|---|---|---|---|---|
| 2026-05-04 15:33 | 57.66778 | 12.29311 | 519 ft | 0 kts | 116° |
| 2026-05-04 15:37 | 57.66791 | 12.29261 | 519 ft | 5 kts | 115° |
| 2026-05-04 15:37 | 57.66804 | 12.29214 | 519 ft | 2 kts | 133° |
| 2026-05-04 15:38 | 57.66816 | 12.29205 | 519 ft | 2 kts | 197° |
| 2026-05-04 15:38 | 57.66826 | 12.29213 | 519 ft | 1 kts | 206° |
| 2026-05-04 15:39 | 57.66814 | 12.29201 | 519 ft | 4 kts | 206° |
| 2026-05-04 15:40 | 57.66780 | 12.29165 | 519 ft | 7 kts | 222° |
| 2026-05-04 15:40 | 57.66781 | 12.29073 | 519 ft | 9 kts | 298° |
| 2026-05-04 15:40 | 57.66831 | 12.29001 | 519 ft | 11 kts | 2° |
| 2026-05-04 15:40 | 57.66916 | 12.29068 | 519 ft | 15 kts | 25° |
| 2026-05-04 15:41 | 57.67024 | 12.29169 | 519 ft | 19 kts | 26° |
| 2026-05-04 15:41 | 57.67157 | 12.29288 | 519 ft | 23 kts | 25° |
| 2026-05-04 15:41 | 57.67311 | 12.29426 | 519 ft | 26 kts | 26° |
| 2026-05-04 15:41 | 57.67396 | 12.29476 | 519 ft | 12 kts | 343° |
| 2026-05-04 15:42 | 57.67444 | 12.29351 | 519 ft | 13 kts | 296° |
| 2026-05-04 15:42 | 57.67458 | 12.29257 | 518 ft | 0 kts | 265° |
| 2026-05-04 15:43 | 57.67458 | 12.29251 | 518 ft | 2 kts | 262° |
| 2026-05-04 15:44 | 57.67454 | 12.29176 | 518 ft | 9 kts | 265° |
| 2026-05-04 15:44 | 57.67431 | 12.29059 | 518 ft | 10 kts | 234° |
| 2026-05-04 15:44 | 57.67358 | 12.28960 | 518 ft | 19 kts | 207° |
| 2026-05-04 15:44 | 57.67073 | 12.28700 | 517 ft | 78 kts | 205° |
| 2026-05-04 15:45 | 57.66388 | 12.28082 | 515 ft | 139 kts | 205° |
| 2026-05-04 15:45 | 57.65439 | 12.27215 | 875 ft | 153 kts | 217° |
| 2026-05-04 15:45 | 57.64597 | 12.26094 | 1674 ft | 145 kts | 204° |
| 2026-05-04 15:45 | 57.63654 | 12.25952 | 2451 ft | 152 kts | 193° |
| 2026-05-04 15:46 | 57.62583 | 12.25444 | 2951 ft | 124 kts | 213° |
| 2026-05-04 15:46 | 57.61696 | 12.24647 | 3350 ft | 163 kts | 214° |
| 2026-05-04 15:46 | 57.60563 | 12.23992 | 3940 ft | 170 kts | 196° |
| 2026-05-04 15:46 | 57.59383 | 12.23716 | 4628 ft | 175 kts | 194° |
| 2026-05-04 15:47 | 57.58113 | 12.23406 | 4969 ft | 196 kts | 197° |
| 2026-05-04 15:47 | 57.56660 | 12.22935 | 5006 ft | 228 kts | 197° |
| 2026-05-04 15:47 | 57.54998 | 12.22763 | 5215 ft | 252 kts | 181° |
| 2026-05-04 15:47 | 57.53200 | 12.23159 | 5781 ft | 270 kts | 177° |
| 2026-05-04 15:48 | 57.51311 | 12.23684 | 6521 ft | 279 kts | 177° |
| 2026-05-04 15:48 | 57.49377 | 12.24236 | 7391 ft | 282 kts | 177° |
| 2026-05-04 15:48 | 57.45481 | 12.25326 | 9312 ft | 285 kts | 178° |
| 2026-05-04 15:49 | 57.43507 | 12.25865 | 10195 ft | 290 kts | 179° |
| 2026-05-04 15:49 | 57.41439 | 12.26414 | 10633 ft | 312 kts | 179° |
| 2026-05-04 15:49 | 57.39246 | 12.26991 | 10992 ft | 334 kts | 178° |
| 2026-05-04 15:49 | 57.36869 | 12.27622 | 11358 ft | 355 kts | 178° |
| 2026-05-04 15:50 | 57.34356 | 12.28296 | 11714 ft | 375 kts | 178° |
| 2026-05-04 15:50 | 57.31718 | 12.29005 | 12153 ft | 389 kts | 177° |
| 2026-05-04 15:50 | 57.29010 | 12.29738 | 12798 ft | 397 kts | 177° |
| 2026-05-04 15:50 | 57.26262 | 12.30482 | 13549 ft | 402 kts | 177° |
| 2026-05-04 15:51 | 57.23480 | 12.31233 | 14237 ft | 406 kts | 178° |
| 2026-05-04 15:51 | 57.20670 | 12.31987 | 14894 ft | 411 kts | 178° |
| 2026-05-04 15:51 | 57.17827 | 12.32747 | 15556 ft | 415 kts | 178° |
| 2026-05-04 15:51 | 57.14990 | 12.33502 | 16206 ft | 419 kts | 178° |
| 2026-05-04 15:52 | 57.12093 | 12.34257 | 16855 ft | 423 kts | 178° |
| 2026-05-04 15:52 | 57.09156 | 12.34999 | 17487 ft | 427 kts | 178° |
| 2026-05-04 15:52 | 57.06199 | 12.35732 | 18096 ft | 431 kts | 178° |
| 2026-05-04 15:52 | 57.03207 | 12.36468 | 18638 ft | 436 kts | 178° |
| 2026-05-04 15:53 | 57.00187 | 12.37210 | 19139 ft | 440 kts | 178° |
| 2026-05-04 15:53 | 56.97144 | 12.37959 | 19650 ft | 444 kts | 178° |
| 2026-05-04 15:53 | 56.94074 | 12.38716 | 20142 ft | 447 kts | 177° |
| 2026-05-04 15:53 | 56.90973 | 12.39481 | 20660 ft | 451 kts | 177° |
| 2026-05-04 15:54 | 56.87848 | 12.40250 | 21139 ft | 455 kts | 177° |
| 2026-05-04 15:54 | 56.84739 | 12.41015 | 21619 ft | 458 kts | 177° |
| 2026-05-04 15:54 | 56.81572 | 12.41794 | 22124 ft | 462 kts | 177° |
| 2026-05-04 15:54 | 56.78378 | 12.42578 | 22619 ft | 465 kts | 177° |
| 2026-05-04 15:55 | 56.75157 | 12.43367 | 23133 ft | 468 kts | 177° |
| 2026-05-04 15:55 | 56.71924 | 12.44158 | 23615 ft | 470 kts | 177° |
| 2026-05-04 15:55 | 56.68671 | 12.44952 | 24031 ft | 473 kts | 177° |
| 2026-05-04 15:55 | 56.65406 | 12.45747 | 24435 ft | 475 kts | 176° |
| 2026-05-04 15:56 | 56.62121 | 12.46547 | 24845 ft | 477 kts | 176° |
| 2026-05-04 15:56 | 56.58832 | 12.47346 | 25313 ft | 477 kts | 176° |
| 2026-05-04 15:56 | 56.55560 | 12.48141 | 25878 ft | 474 kts | 176° |
| 2026-05-04 15:56 | 56.52344 | 12.48921 | 26408 ft | 473 kts | 176° |
| 2026-05-04 15:57 | 56.49082 | 12.49709 | 26913 ft | 472 kts | 176° |
| 2026-05-04 15:57 | 56.45830 | 12.50493 | 27420 ft | 471 kts | 176° |
| 2026-05-04 15:57 | 56.42594 | 12.51271 | 27908 ft | 470 kts | 175° |
| 2026-05-04 15:57 | 56.39351 | 12.52048 | 28402 ft | 469 kts | 175° |
| 2026-05-04 15:58 | 56.36129 | 12.52818 | 28887 ft | 468 kts | 175° |
| 2026-05-04 15:58 | 56.32904 | 12.53587 | 29347 ft | 467 kts | 175° |
| 2026-05-04 15:58 | 56.29690 | 12.54352 | 29807 ft | 466 kts | 175° |
| 2026-05-04 15:58 | 56.26472 | 12.55117 | 30193 ft | 466 kts | 175° |
| 2026-05-04 15:59 | 56.23299 | 12.55870 | 30578 ft | 465 kts | 175° |
| 2026-05-04 15:59 | 56.20100 | 12.56628 | 30990 ft | 463 kts | 175° |
| 2026-05-04 15:59 | 56.16909 | 12.57244 | 31348 ft | 460 kts | 180° |
| 2026-05-04 15:59 | 56.13714 | 12.57192 | 31731 ft | 456 kts | 186° |
| 2026-05-04 16:00 | 56.10550 | 12.56707 | 31916 ft | 458 kts | 189° |
| 2026-05-04 16:00 | 56.07378 | 12.56013 | 31926 ft | 460 kts | 191° |
| 2026-05-04 16:00 | 56.01034 | 12.54512 | 31927 ft | 459 kts | 190° |
| 2026-05-04 16:01 | 55.94729 | 12.53160 | 31929 ft | 459 kts | 189° |
| 2026-05-04 16:01 | 55.88382 | 12.51925 | 31629 ft | 459 kts | 189° |
| 2026-05-04 16:02 | 55.85215 | 12.51330 | 31936 ft | 458 kts | 189° |
| 2026-05-04 16:02 | 55.82039 | 12.50737 | 31936 ft | 458 kts | 189° |
| 2026-05-04 16:03 | 55.72554 | 12.48961 | 31938 ft | 457 kts | 189° |
| 2026-05-04 16:03 | 55.66232 | 12.47776 | 31937 ft | 456 kts | 190° |
| 2026-05-04 16:04 | 55.59970 | 12.46605 | 31936 ft | 455 kts | 190° |
| 2026-05-04 16:04 | 55.50572 | 12.44855 | 31933 ft | 452 kts | 190° |
| 2026-05-04 16:05 | 55.44315 | 12.43695 | 31937 ft | 451 kts | 191° |
| 2026-05-04 16:06 | 55.35020 | 12.41978 | 31938 ft | 448 kts | 191° |
| 2026-05-04 16:06 | 55.26766 | 12.40457 | 31716 ft | 448 kts | 191° |
| 2026-05-04 16:07 | 55.22623 | 12.39698 | 31930 ft | 447 kts | 191° |
| 2026-05-04 16:08 | 55.10334 | 12.37456 | 31949 ft | 444 kts | 192° |
| 2026-05-04 16:09 | 54.95026 | 12.34679 | 31950 ft | 441 kts | 192° |
| 2026-05-04 16:10 | 54.82875 | 12.32490 | 31953 ft | 439 kts | 192° |
| 2026-05-04 16:11 | 54.70730 | 12.30314 | 31955 ft | 438 kts | 192° |
| 2026-05-04 16:12 | 54.52993 | 12.24755 | 31958 ft | 428 kts | 204° |
| 2026-05-04 16:13 | 54.41676 | 12.18465 | 31960 ft | 428 kts | 203° |
| 2026-05-04 16:14 | 54.30317 | 12.12502 | 31961 ft | 428 kts | 202° |
| 2026-05-04 16:16 | 54.16251 | 12.04558 | 31965 ft | 426 kts | 205° |
| 2026-05-04 16:17 | 54.02255 | 11.96233 | 31971 ft | 426 kts | 204° |
| 2026-05-04 16:18 | 53.91051 | 11.89671 | 31967 ft | 426 kts | 204° |
| 2026-05-04 16:19 | 53.77069 | 11.81532 | 31962 ft | 427 kts | 204° |
| 2026-05-04 16:20 | 53.63046 | 11.73425 | 31956 ft | 427 kts | 204° |
| 2026-05-04 16:22 | 53.48957 | 11.65338 | 31956 ft | 428 kts | 204° |
| 2026-05-04 16:23 | 53.32060 | 11.55714 | 31957 ft | 429 kts | 203° |
| 2026-05-04 16:25 | 53.15122 | 11.46151 | 31955 ft | 426 kts | 204° |
| 2026-05-04 16:26 | 52.95536 | 11.35183 | 31963 ft | 425 kts | 204° |
| 2026-05-04 16:28 | 52.81551 | 11.27418 | 31962 ft | 425 kts | 204° |
| 2026-05-04 16:29 | 52.61928 | 11.16612 | 31969 ft | 426 kts | 203° |
| 2026-05-04 16:31 | 52.47849 | 11.08922 | 31967 ft | 427 kts | 203° |
| 2026-05-04 16:32 | 52.30953 | 10.99761 | 31962 ft | 428 kts | 202° |
| 2026-05-04 16:33 | 52.19676 | 10.93688 | 31956 ft | 428 kts | 202° |
| 2026-05-04 16:34 | 52.11182 | 10.89135 | 31965 ft | 429 kts | 202° |
| 2026-05-04 16:35 | 51.94206 | 10.80090 | 31970 ft | 429 kts | 202° |
| 2026-05-04 16:36 | 51.85695 | 10.75582 | 31972 ft | 429 kts | 202° |
| 2026-05-04 16:37 | 51.77179 | 10.71089 | 31974 ft | 429 kts | 202° |
| 2026-05-04 16:38 | 51.65842 | 10.65137 | 31973 ft | 430 kts | 201° |
| 2026-05-04 16:39 | 51.51644 | 10.57726 | 31971 ft | 430 kts | 201° |
| 2026-05-04 16:40 | 51.40249 | 10.51814 | 31966 ft | 431 kts | 201° |
| 2026-05-04 16:41 | 51.26017 | 10.44471 | 31966 ft | 431 kts | 201° |
| 2026-05-04 16:43 | 51.11726 | 10.37148 | 31959 ft | 432 kts | 201° |